createdAt,value
2023-03-28T00:01:03.747Z,99.65
2023-03-28T00:03:36.580Z,99.78
2023-03-28T00:06:09.805Z,99.93
2023-03-28T00:08:40.352Z,99.65
2023-03-28T00:11:11.490Z,100.00
2023-03-28T00:13:39.934Z,100.00
2023-03-28T00:16:09.821Z,100.00
2023-03-28T00:18:40.340Z,100.00
2023-03-28T00:21:23.477Z,100.00
2023-03-28T00:23:53.617Z,100.00
2023-03-28T00:26:25.077Z,100.00
2023-03-28T00:28:53.472Z,100.00
2023-03-28T00:31:22.396Z,100.00
2023-03-28T00:33:52.006Z,99.41
2023-03-28T00:36:23.128Z,98.66
2023-03-28T00:38:52.425Z,97.69
2023-03-28T00:41:21.998Z,99.64
2023-03-28T00:43:52.813Z,99.68
2023-03-28T00:46:26.467Z,100.00
2023-03-28T00:48:58.791Z,100.00
2023-03-28T00:51:31.342Z,98.53
2023-03-28T00:54:03.273Z,99.88
2023-03-28T00:56:35.646Z,99.46
2023-03-28T00:59:08.048Z,98.83
2023-03-28T01:01:36.407Z,98.02
2023-03-28T01:04:06.889Z,98.24
2023-03-28T01:06:40.893Z,96.09
2023-03-28T01:09:10.352Z,99.59
2023-03-28T01:11:41.318Z,100.00
2023-03-28T01:14:13.322Z,98.34
2023-03-28T01:16:43.180Z,98.38
2023-03-28T01:19:22.095Z,97.92
2023-03-28T01:22:26.753Z,95.62
2023-03-28T01:25:38.624Z,96.14
2023-03-28T01:28:17.869Z,97.14
2023-03-28T01:31:11.043Z,94.82
2023-03-28T01:34:24.256Z,95.63
2023-03-28T01:37:06.354Z,96.61
2023-03-28T01:39:46.588Z,97.01
2023-03-28T01:42:23.727Z,94.33
2023-03-28T01:45:07.043Z,95.17
2023-03-28T01:47:41.083Z,94.49
2023-03-28T01:50:18.688Z,94.55
2023-03-28T01:52:55.081Z,96.26
2023-03-28T01:55:30.315Z,95.76
2023-03-28T01:58:04.891Z,94.46
2023-03-28T02:00:36.454Z,95.39
2023-03-28T02:03:15.337Z,95.79
2023-03-28T02:05:46.734Z,96.36
2023-03-28T02:08:19.194Z,95.27
2023-03-28T02:10:48.845Z,96.18
2023-03-28T02:13:21.969Z,93.83
2023-03-28T02:15:53.653Z,94.41
2023-03-28T02:18:26.389Z,94.61
2023-03-28T02:20:58.066Z,92.61
2023-03-28T02:23:32.202Z,93.54
2023-03-28T02:26:00.320Z,93.45
2023-03-28T02:28:29.438Z,93.84
2023-03-28T02:30:57.540Z,93.20
2023-03-28T02:33:39.091Z,93.44
2023-03-28T02:36:32.308Z,92.64
2023-03-28T02:39:25.485Z,92.52
2023-03-28T02:42:08.493Z,92.52
2023-03-28T02:44:54.928Z,93.17
2023-03-28T02:47:32.436Z,91.90
2023-03-28T02:50:14.294Z,93.38
2023-03-28T02:52:54.408Z,93.71
2023-03-28T02:55:31.978Z,93.80
2023-03-28T02:58:08.299Z,94.08
2023-03-28T03:00:37.503Z,94.75
2023-03-28T03:03:05.790Z,93.49
2023-03-28T03:05:33.839Z,94.60
2023-03-28T03:08:01.888Z,94.15
2023-03-28T03:10:31.395Z,95.05
2023-03-28T03:12:59.373Z,94.98
2023-03-28T03:15:31.022Z,95.39
2023-03-28T03:17:59.360Z,96.12
2023-03-28T03:20:28.096Z,95.53
2023-03-28T03:22:56.775Z,95.53
2023-03-28T03:25:24.738Z,95.33
2023-03-28T03:27:54.322Z,95.61
2023-03-28T03:30:22.364Z,95.56
2023-03-28T03:32:50.369Z,94.64
2023-03-28T03:35:20.110Z,94.46
2023-03-28T03:37:48.440Z,93.29
2023-03-28T03:40:18.155Z,93.23
2023-03-28T03:42:46.104Z,94.66
2023-03-28T03:45:15.878Z,93.08
2023-03-28T03:47:44.290Z,92.71
2023-03-28T03:50:13.891Z,94.50
2023-03-28T03:52:42.043Z,93.97
2023-03-28T03:55:11.647Z,95.11
2023-03-28T03:57:39.714Z,93.57
2023-03-28T04:00:11.334Z,93.58
2023-03-28T04:02:41.398Z,93.60
2023-03-28T04:05:09.730Z,93.94
2023-03-28T04:07:38.374Z,93.44
2023-03-28T04:10:07.516Z,93.15
2023-03-28T07:07:34.974Z,81.64
2023-03-28T07:10:02.927Z,77.04
2023-03-28T07:12:31.459Z,77.57
2023-03-28T07:14:59.387Z,79.87
2023-03-28T07:17:27.336Z,76.69
2023-03-28T07:19:55.266Z,80.52
2023-03-28T07:22:23.157Z,78.41
2023-03-28T07:24:52.457Z,77.49
2023-03-28T07:27:20.596Z,77.79
2023-03-28T07:29:48.608Z,76.06
2023-03-28T07:32:17.180Z,75.43
2023-03-28T07:34:45.117Z,74.85
2023-03-28T07:37:13.041Z,77.55
2023-03-28T07:39:43.727Z,77.02
2023-03-28T07:42:14.833Z,78.31
2023-03-28T07:44:43.173Z,77.07
2023-03-28T07:47:11.438Z,75.50
2023-03-28T07:49:39.633Z,73.37
2023-03-28T07:52:07.887Z,75.21
2023-03-28T07:54:35.850Z,72.60
2023-03-28T07:57:03.921Z,73.67
2023-03-28T07:59:33.327Z,73.83
2023-03-28T08:02:01.717Z,73.59
2023-03-28T08:04:29.629Z,72.89
2023-03-28T08:06:58.098Z,71.51
2023-03-28T08:09:26.150Z,69.49
2023-03-28T08:11:54.135Z,67.00
2023-03-28T08:14:22.170Z,69.67
2023-03-28T08:16:52.115Z,63.74
2023-03-28T08:19:20.009Z,64.73
2023-03-28T08:21:47.963Z,63.53
2023-03-28T08:24:25.442Z,61.88
2023-03-28T08:27:01.738Z,60.56
2023-03-28T08:29:29.685Z,63.65
2023-03-28T08:31:59.124Z,58.44
2023-03-28T08:34:27.191Z,58.18
2023-03-28T08:36:55.102Z,61.52
2023-03-28T08:39:23.413Z,58.26
2023-03-28T08:42:21.833Z,58.26
2023-03-28T08:45:04.599Z,61.27
2023-03-28T08:47:37.150Z,59.00
2023-03-28T08:50:14.606Z,57.46
2023-03-28T08:52:44.571Z,61.60
2023-03-28T08:55:25.316Z,58.92
2023-03-28T08:57:55.558Z,56.33
2023-03-28T09:00:27.612Z,56.87
2023-03-28T09:02:57.381Z,56.04
2023-03-28T09:05:34.676Z,57.94
2023-03-28T09:08:20.655Z,56.67
2023-03-28T09:10:53.104Z,58.79
2023-03-28T09:13:32.446Z,59.58
2023-03-28T09:16:15.282Z,56.85
2023-03-28T09:19:07.526Z,58.68
2023-03-28T09:21:47.249Z,56.90
2023-03-28T09:24:41.569Z,56.19
2023-03-28T09:27:20.706Z,58.56
2023-03-28T09:29:50.395Z,58.53
2023-03-28T09:32:23.750Z,55.23
2023-03-28T09:34:53.913Z,54.65
2023-03-28T09:37:31.987Z,57.64
2023-03-28T09:40:08.815Z,60.74
2023-03-28T09:42:46.151Z,56.77
2023-03-28T09:45:27.180Z,57.38
2023-03-28T09:47:55.203Z,63.03
2023-03-28T09:50:26.341Z,61.35
2023-03-28T09:52:57.275Z,58.56
2023-03-28T09:55:27.441Z,59.91
2023-03-28T09:58:03.511Z,57.33
2023-03-28T10:00:36.934Z,59.21
2023-03-28T10:03:06.187Z,56.99
2023-03-28T10:05:38.847Z,57.27
2023-03-28T10:08:19.853Z,57.52
2023-03-28T10:10:56.313Z,56.99
2023-03-28T10:13:24.664Z,57.06
2023-03-28T10:15:53.678Z,57.58
2023-03-28T10:18:23.142Z,57.92
2023-03-28T10:20:52.473Z,54.54
2023-03-28T10:23:23.395Z,55.59
2023-03-28T10:25:53.489Z,55.80
2023-03-28T10:28:29.666Z,56.42
2023-03-28T10:31:01.057Z,55.48
2023-03-28T10:33:34.280Z,55.23
2023-03-28T10:36:06.457Z,58.29
2023-03-28T10:38:38.461Z,55.52
2023-03-28T10:41:10.667Z,56.69
2023-03-28T10:43:40.786Z,56.36
2023-03-28T10:46:14.260Z,56.22
2023-03-28T10:48:47.191Z,56.17
2023-03-28T10:51:22.024Z,53.97
2023-03-28T10:54:03.674Z,55.00
2023-03-28T10:56:38.722Z,53.25
2023-03-28T10:59:24.697Z,57.60
2023-03-28T11:02:10.573Z,56.50
2023-03-28T11:04:56.852Z,57.91
2023-03-28T11:07:32.637Z,57.70
2023-03-28T11:10:12.250Z,54.43
2023-03-28T11:12:56.667Z,54.62
2023-03-28T11:15:30.491Z,52.16
2023-03-28T11:18:08.307Z,53.15
2023-03-28T11:20:46.095Z,55.82
2023-03-28T11:23:38.877Z,52.37
2023-03-28T11:26:10.542Z,53.98
2023-03-28T11:28:56.654Z,55.82
2023-03-28T11:31:30.653Z,54.19
2023-03-28T11:34:05.108Z,52.92
2023-03-28T11:36:38.957Z,52.98
2023-03-28T11:39:18.198Z,53.41
2023-03-28T11:41:49.633Z,52.59
2023-03-28T11:44:22.174Z,54.56
2023-03-28T11:46:54.564Z,56.27
2023-03-28T11:49:28.487Z,55.96
2023-03-28T11:52:02.659Z,52.11
2023-03-28T11:54:37.149Z,53.78
2023-03-28T11:57:13.054Z,51.97
2023-03-28T11:59:47.605Z,54.51
2023-03-28T12:02:28.608Z,50.18
2023-03-28T12:05:00.565Z,53.52
2023-03-28T12:07:35.930Z,53.34
2023-03-28T12:10:18.575Z,54.30
2023-03-28T12:12:57.112Z,54.43
2023-03-28T12:15:34.651Z,53.25
2023-03-28T12:18:07.712Z,53.47
2023-03-28T12:20:45.267Z,51.99
2023-03-28T12:23:22.374Z,53.48
2023-03-28T12:26:04.011Z,51.55
2023-03-28T12:28:38.913Z,51.62
2023-03-28T12:31:14.723Z,52.35
2023-03-28T12:33:54.285Z,52.35
2023-03-28T12:36:28.572Z,52.98
2023-03-28T12:39:00.147Z,48.84
2023-03-28T12:41:32.522Z,49.55
2023-03-28T12:44:05.075Z,52.78
2023-03-28T12:46:45.905Z,51.68
2023-03-28T12:49:19.994Z,51.56
2023-03-28T12:51:50.165Z,50.33
2023-03-28T12:54:27.389Z,51.87
2023-03-28T12:57:11.760Z,51.27
2023-03-28T12:59:54.238Z,50.25
2023-03-28T13:02:32.321Z,49.63
2023-03-28T13:05:12.974Z,49.43
2023-03-28T13:07:56.685Z,50.32
2023-03-28T13:10:33.894Z,49.39
2023-03-28T13:13:14.518Z,50.75
2023-03-28T13:16:02.238Z,50.98
2023-03-28T13:18:32.767Z,47.91
2023-03-28T13:21:04.383Z,48.14
2023-03-28T13:23:36.836Z,49.59
2023-03-28T13:26:06.826Z,46.64
2023-03-28T13:28:43.356Z,48.33
2023-03-28T13:31:22.481Z,49.40
2023-03-28T13:33:54.695Z,49.42
2023-03-28T13:36:26.190Z,46.86
2023-03-28T13:39:07.244Z,49.33
2023-03-28T13:41:55.227Z,49.68
2023-03-28T13:44:33.340Z,49.39
2023-03-28T13:47:01.497Z,52.32
2023-03-28T13:49:38.184Z,47.68
2023-03-28T13:52:11.050Z,47.67
2023-03-28T13:54:38.990Z,47.64
2023-03-28T13:57:13.035Z,47.97
2023-03-28T13:59:54.058Z,48.36
2023-03-28T14:02:31.381Z,47.64
2023-03-28T14:05:13.049Z,47.00
2023-03-28T14:07:41.471Z,46.98
2023-03-28T14:10:23.889Z,47.77
2023-03-28T14:12:54.132Z,48.09
2023-03-28T14:15:25.839Z,47.17
2023-03-28T14:17:55.825Z,47.24
2023-03-28T14:20:24.495Z,49.88
2023-03-28T14:23:00.279Z,46.89
2023-03-28T14:25:30.741Z,45.90
2023-03-28T14:28:06.697Z,46.98
2023-03-28T14:30:42.555Z,46.04
2023-03-28T14:33:20.580Z,48.71
2023-03-28T14:35:58.850Z,46.62
2023-03-28T14:38:33.006Z,46.13
2023-03-28T14:41:08.751Z,47.40
2023-03-28T14:43:37.197Z,48.23
2023-03-28T14:46:09.958Z,50.88
2023-03-28T14:48:39.336Z,49.11
2023-03-28T14:51:08.123Z,50.65
2023-03-28T14:53:39.235Z,50.78
2023-03-28T14:56:10.585Z,52.01
2023-03-28T14:58:41.472Z,53.34
2023-03-28T15:01:21.774Z,56.03
2023-03-28T15:03:54.792Z,56.70
2023-03-28T15:06:24.453Z,55.66
2023-03-28T15:08:54.526Z,57.01
2023-03-28T15:11:27.845Z,58.44
2023-03-28T15:14:03.137Z,59.41
2023-03-28T15:16:37.862Z,59.64
2023-03-28T15:19:09.210Z,60.84
2023-03-28T15:21:39.868Z,61.04
2023-03-28T15:24:12.889Z,65.33
2023-03-28T15:26:44.798Z,65.60
2023-03-28T15:29:17.421Z,67.65
2023-03-28T15:31:47.820Z,69.45
2023-03-28T15:34:21.712Z,69.76
2023-03-28T15:36:52.601Z,71.61
2023-03-28T15:39:25.555Z,71.32
2023-03-28T15:42:00.103Z,71.28
2023-03-28T15:44:30.073Z,70.23
2023-03-28T15:47:02.890Z,70.77
2023-03-28T15:49:36.621Z,70.52
2023-03-28T15:52:07.205Z,68.30
2023-03-28T15:54:40.004Z,67.19
2023-03-28T15:57:08.456Z,68.26
2023-03-28T15:59:39.386Z,68.23
2023-03-28T16:02:30.459Z,68.32
2023-03-28T16:05:02.810Z,69.70
2023-03-28T16:07:36.237Z,69.77
2023-03-28T16:10:04.818Z,69.77
2023-03-28T16:12:33.388Z,69.67
2023-03-28T16:15:03.785Z,69.11
2023-03-28T16:17:33.739Z,68.40
2023-03-28T16:20:01.690Z,69.44
2023-03-28T16:22:29.630Z,68.16
2023-03-28T16:24:57.551Z,70.01
2023-03-28T16:27:25.525Z,69.80
2023-03-28T16:29:53.425Z,70.30
2023-03-28T16:32:23.935Z,71.42
2023-03-28T16:34:53.275Z,72.49
2023-03-28T16:37:21.903Z,71.76
2023-03-28T16:39:49.825Z,73.35
2023-03-28T16:42:20.895Z,75.04
2023-03-28T16:44:48.920Z,75.73
2023-03-28T16:47:16.840Z,76.97
2023-03-28T16:49:44.774Z,77.70
2023-03-28T16:52:14.210Z,78.53
2023-03-28T16:54:42.228Z,78.63
2023-03-28T16:57:10.332Z,80.26
2023-03-28T16:59:38.365Z,81.38
2023-03-28T17:02:06.666Z,82.47
2023-03-28T17:04:36.029Z,84.44
2023-03-28T17:07:03.961Z,84.95
2023-03-28T17:09:34.687Z,86.62
2023-03-28T17:12:02.628Z,88.19
2023-03-28T17:14:30.581Z,89.32
2023-03-28T17:16:58.580Z,89.95
2023-03-28T17:19:26.661Z,90.20
2023-03-28T17:21:55.754Z,89.30
2023-03-28T17:24:23.755Z,90.10
2023-03-28T17:26:53.079Z,90.41
2023-03-28T17:29:21.575Z,90.38
2023-03-28T17:31:49.633Z,90.03
2023-03-28T17:34:17.858Z,90.75
2023-03-28T17:36:45.873Z,90.29
2023-03-28T17:39:13.988Z,89.96
2023-03-28T17:41:42.581Z,92.75
2023-03-28T17:44:11.982Z,95.21
2023-03-28T17:46:40.048Z,97.61
2023-03-28T17:49:08.244Z,97.33
2023-03-28T17:51:36.299Z,97.59
2023-03-28T17:54:06.855Z,98.50
2023-03-28T17:56:34.894Z,97.19
2023-03-28T17:59:02.828Z,95.87
2023-03-28T18:01:32.561Z,95.66
2023-03-28T18:04:00.638Z,94.39
2023-03-28T18:06:28.893Z,94.09
2023-03-28T18:08:56.874Z,94.31
2023-03-28T18:11:24.839Z,93.93
2023-03-28T18:13:56.811Z,93.43
2023-03-28T18:16:25.082Z,93.24
2023-03-28T18:18:55.347Z,94.21
2023-03-28T18:21:23.243Z,93.81
2023-03-28T18:23:51.784Z,93.05
2023-03-28T18:26:19.948Z,93.36
2023-03-28T18:28:47.891Z,93.15
2023-03-28T18:31:19.584Z,93.64
2023-03-28T18:33:47.587Z,94.60
2023-03-28T18:36:17.113Z,95.89
2023-03-28T18:38:46.635Z,96.16
2023-03-28T18:41:15.433Z,94.24
2023-03-28T18:43:45.560Z,94.10
2023-03-28T18:46:15.972Z,95.00
2023-03-28T18:48:44.893Z,95.58
2023-03-28T18:51:13.913Z,96.32
2023-03-28T18:53:43.799Z,95.50
2023-03-28T18:56:13.678Z,95.68
2023-03-28T18:58:41.932Z,95.55
2023-03-28T19:01:11.471Z,96.48
2023-03-28T19:03:41.780Z,97.07
2023-03-28T19:06:11.492Z,97.41
2023-03-28T19:08:40.352Z,97.01
2023-03-28T19:11:11.877Z,95.82
2023-03-28T19:13:40.086Z,94.47
2023-03-28T19:16:10.341Z,93.94
2023-03-28T19:18:40.234Z,93.44
2023-03-28T19:21:09.179Z,93.34
2023-03-28T19:23:38.162Z,93.05
2023-03-28T19:26:08.251Z,93.37
2023-03-28T19:28:39.181Z,92.63
2023-03-28T19:31:09.757Z,93.76
2023-03-28T19:33:38.583Z,93.79
2023-03-28T19:36:07.222Z,93.03
2023-03-28T19:38:37.334Z,94.28
2023-03-28T19:41:10.677Z,93.53
2023-03-28T19:43:40.909Z,92.17
2023-03-28T19:46:12.119Z,92.08
2023-03-28T19:48:41.381Z,91.45
2023-03-28T19:51:09.335Z,91.15
2023-03-28T19:53:37.322Z,91.86
2023-03-28T19:56:06.766Z,91.53
2023-03-28T19:58:35.015Z,89.82
2023-03-28T20:01:04.928Z,91.13
2023-03-28T20:03:32.889Z,91.56
2023-03-28T20:06:04.361Z,92.26
2023-03-28T20:08:34.376Z,92.46
2023-03-28T20:11:03.212Z,92.45
2023-03-28T20:13:31.528Z,92.88
2023-03-28T20:16:03.012Z,93.40
2023-03-28T20:18:32.867Z,92.41
2023-03-28T20:21:02.633Z,93.49
2023-03-28T20:23:32.686Z,92.96
2023-03-28T20:26:01.717Z,93.52
2023-03-28T20:28:32.015Z,96.14
2023-03-28T20:31:00.556Z,96.83
2023-03-28T20:33:28.801Z,97.15
2023-03-28T20:35:59.386Z,97.31
2023-03-28T20:38:27.409Z,97.56
2023-03-28T20:40:55.384Z,97.37
2023-03-28T20:43:26.756Z,100.00
2023-03-28T20:45:56.496Z,100.00
2023-03-28T20:48:34.448Z,100.00
2023-03-28T20:51:05.818Z,100.00
2023-03-28T20:53:34.857Z,100.00
2023-03-28T20:56:04.698Z,99.87
2023-03-28T20:58:33.368Z,100.00
2023-03-28T21:01:04.266Z,100.00
2023-03-28T21:03:46.805Z,100.00
2023-03-28T21:06:20.512Z,100.00
2023-03-28T21:08:50.059Z,100.00
2023-03-28T21:11:19.796Z,100.00
2023-03-28T21:13:47.826Z,100.00
2023-03-28T21:16:17.820Z,100.00
2023-03-28T21:18:46.829Z,100.00
2023-03-28T21:21:17.293Z,100.00
2023-03-28T21:23:46.750Z,100.00
2023-03-28T21:26:17.378Z,100.00
2023-03-28T21:28:46.050Z,100.00
2023-03-28T21:31:16.208Z,100.00
2023-03-28T21:33:44.387Z,100.00
2023-03-28T21:36:15.994Z,100.00
2023-03-28T21:38:46.254Z,100.00
2023-03-28T21:41:14.970Z,100.00
2023-03-28T21:43:43.396Z,100.00
2023-03-28T21:46:13.653Z,100.00
2023-03-28T21:48:42.303Z,100.00
2023-03-28T21:51:10.391Z,93.65
2023-03-28T21:53:39.672Z,95.16
2023-03-28T21:56:11.721Z,91.70
2023-03-28T21:58:40.551Z,91.48
2023-03-28T22:01:09.015Z,88.26
2023-03-28T22:03:38.117Z,85.80
2023-03-28T22:06:07.292Z,86.08
2023-03-28T22:08:35.254Z,83.81
2023-03-28T22:11:04.435Z,84.32
2023-03-28T22:13:33.986Z,81.99
2023-03-28T22:16:02.597Z,82.50
2023-03-28T22:18:30.822Z,83.57
2023-03-28T22:21:02.575Z,82.31
2023-03-28T22:23:31.768Z,83.08
2023-03-28T22:25:59.854Z,84.54
2023-03-28T22:28:27.790Z,84.16
2023-03-28T22:30:57.646Z,83.10
2023-03-28T22:33:25.917Z,84.37
2023-03-28T22:35:54.291Z,85.46
2023-03-28T22:38:22.315Z,83.96
2023-03-28T22:40:50.472Z,83.99
2023-03-28T22:43:18.452Z,83.52
2023-03-28T22:45:46.478Z,83.89
2023-03-28T22:48:15.839Z,85.08
2023-03-28T22:50:45.379Z,84.67
2023-03-28T22:53:14.349Z,84.40
2023-03-28T22:55:46.400Z,83.63
2023-03-28T22:58:14.434Z,85.98
2023-03-28T23:00:43.858Z,86.95
2023-03-28T23:03:12.388Z,86.88
2023-03-28T23:05:42.169Z,87.23
2023-03-28T23:08:11.949Z,87.98
2023-03-28T23:10:40.585Z,88.10
2023-03-28T23:13:09.261Z,87.95
2023-03-28T23:15:37.247Z,88.94
2023-03-28T23:18:05.848Z,88.37
2023-03-28T23:20:33.787Z,88.97
2023-03-28T23:23:03.077Z,88.82
2023-03-28T23:25:31.016Z,89.55
2023-03-28T23:27:58.960Z,90.48
2023-03-28T23:30:27.108Z,92.32
2023-03-28T23:32:56.055Z,91.82
2023-03-28T23:35:23.991Z,91.66
2023-03-28T23:37:54.129Z,92.08
2023-03-28T23:40:24.435Z,91.88
2023-03-28T23:42:52.369Z,92.60
2023-03-28T23:45:20.391Z,92.74
2023-03-28T23:47:48.411Z,93.04
2023-03-28T23:50:16.611Z,93.39
2023-03-28T23:52:44.577Z,93.50
2023-03-28T23:55:12.534Z,92.27
2023-03-28T23:57:41.996Z,92.73
